sensor_id;sensor_type;location;lat;lon;timestamp;P1;durP1;ratioP1;P2;durP2;ratioP2
49584;SDS011;35491;49.142;9.210;2022-12-18T00:28:05;63.22;;;36.92;;
49584;SDS011;35491;49.142;9.210;2022-12-18T00:29:16;62.80;;;36.85;;
49584;SDS011;35491;49.142;9.210;2022-12-18T00:34:18;69.55;;;38.40;;
49584;SDS011;35491;49.142;9.210;2022-12-18T00:35:48;60.20;;;36.05;;
49584;SDS011;35491;49.142;9.210;2022-12-18T00:36:50;68.47;;;36.92;;
49584;SDS011;35491;49.142;9.210;2022-12-18T00:37:57;60.60;;;36.47;;
49584;SDS011;35491;49.142;9.210;2022-12-18T00:39:24;59.22;;;33.38;;
49584;SDS011;35491;49.142;9.210;2022-12-18T00:40:41;61.47;;;35.15;;
49584;SDS011;35491;49.142;9.210;2022-12-18T00:41:52;60.00;;;34.58;;
49584;SDS011;35491;49.142;9.210;2022-12-18T00:43:24;63.13;;;34.70;;
49584;SDS011;35491;49.142;9.210;2022-12-18T00:44:29;65.55;;;36.08;;
49584;SDS011;35491;49.142;9.210;2022-12-18T00:45:30;60.45;;;37.58;;
49584;SDS011;35491;49.142;9.210;2022-12-18T00:46:35;66.07;;;41.13;;
49584;SDS011;35491;49.142;9.210;2022-12-18T00:47:36;69.38;;;41.78;;
49584;SDS011;35491;49.142;9.210;2022-12-18T00:48:41;72.68;;;41.10;;
49584;SDS011;35491;49.142;9.210;2022-12-18T00:49:42;72.35;;;41.35;;
49584;SDS011;35491;49.142;9.210;2022-12-18T00:50:47;70.22;;;43.13;;
49584;SDS011;35491;49.142;9.210;2022-12-18T00:51:49;72.53;;;42.75;;
49584;SDS011;35491;49.142;9.210;2022-12-18T00:52:53;75.75;;;45.28;;
49584;SDS011;35491;49.142;9.210;2022-12-18T00:53:54;80.28;;;47.72;;
49584;SDS011;35491;49.142;9.210;2022-12-18T00:54:59;78.90;;;47.00;;
49584;SDS011;35491;49.142;9.210;2022-12-18T00:56:03;75.82;;;47.00;;
49584;SDS011;35491;49.142;9.210;2022-12-18T00:57:07;78.72;;;46.08;;
49584;SDS011;35491;49.142;9.210;2022-12-18T00:58:10;78.00;;;44.10;;
49584;SDS011;35491;49.142;9.210;2022-12-18T00:59:15;74.80;;;45.03;;
49584;SDS011;35491;49.142;9.210;2022-12-18T01:00:16;76.85;;;44.40;;
49584;SDS011;35491;49.142;9.210;2022-12-18T01:01:21;72.18;;;41.80;;
49584;SDS011;35491;49.142;9.210;2022-12-18T01:02:23;67.68;;;39.35;;
49584;SDS011;35491;49.142;9.210;2022-12-18T01:03:27;62.33;;;38.05;;
49584;SDS011;35491;49.142;9.210;2022-12-18T01:04:30;57.05;;;34.72;;
49584;SDS011;35491;49.142;9.210;2022-12-18T01:05:38;58.97;;;35.03;;
49584;SDS011;35491;49.142;9.210;2022-12-18T01:06:40;61.05;;;36.53;;
49584;SDS011;35491;49.142;9.210;2022-12-18T01:07:44;60.60;;;36.95;;
49584;SDS011;35491;49.142;9.210;2022-12-18T01:08:46;62.03;;;37.65;;
49584;SDS011;35491;49.142;9.210;2022-12-18T01:09:50;65.70;;;40.38;;
49584;SDS011;35491;49.142;9.210;2022-12-18T01:10:52;66.20;;;42.30;;
49584;SDS011;35491;49.142;9.210;2022-12-18T01:11:58;62.83;;;38.13;;
49584;SDS011;35491;49.142;9.210;2022-12-18T01:13:03;64.82;;;38.38;;
49584;SDS011;35491;49.142;9.210;2022-12-18T01:14:04;64.40;;;38.55;;
49584;SDS011;35491;49.142;9.210;2022-12-18T01:15:09;61.65;;;36.55;;
49584;SDS011;35491;49.142;9.210;2022-12-18T01:16:13;60.15;;;37.72;;
49584;SDS011;35491;49.142;9.210;2022-12-18T01:17:18;60.30;;;34.75;;
49584;SDS011;35491;49.142;9.210;2022-12-18T01:18:20;60.45;;;35.42;;
49584;SDS011;35491;49.142;9.210;2022-12-18T01:19:24;54.95;;;34.72;;
49584;SDS011;35491;49.142;9.210;2022-12-18T01:20:25;56.22;;;34.35;;
49584;SDS011;35491;49.142;9.210;2022-12-18T01:21:29;55.42;;;35.83;;
49584;SDS011;35491;49.142;9.210;2022-12-18T01:22:31;57.88;;;35.45;;
49584;SDS011;35491;49.142;9.210;2022-12-18T01:23:35;60.33;;;35.28;;
49584;SDS011;35491;49.142;9.210;2022-12-18T01:24:37;58.33;;;34.65;;
49584;SDS011;35491;49.142;9.210;2022-12-18T01:25:41;58.45;;;34.85;;
49584;SDS011;35491;49.142;9.210;2022-12-18T01:26:42;52.55;;;32.20;;
49584;SDS011;35491;49.142;9.210;2022-12-18T01:27:49;56.60;;;34.75;;
49584;SDS011;35491;49.142;9.210;2022-12-18T01:28:50;55.80;;;34.30;;
49584;SDS011;35491;49.142;9.210;2022-12-18T01:29:55;55.50;;;33.80;;
49584;SDS011;35491;49.142;9.210;2022-12-18T01:30:56;50.38;;;32.45;;
49584;SDS011;35491;49.142;9.210;2022-12-18T01:32:00;46.35;;;29.55;;
49584;SDS011;35491;49.142;9.210;2022-12-18T01:33:03;52.80;;;31.38;;
49584;SDS011;35491;49.142;9.210;2022-12-18T01:34:08;52.78;;;31.65;;
49584;SDS011;35491;49.142;9.210;2022-12-18T01:35:13;59.25;;;36.15;;
49584;SDS011;35491;49.142;9.210;2022-12-18T01:36:15;58.00;;;37.10;;
49584;SDS011;35491;49.142;9.210;2022-12-18T01:37:21;57.10;;;34.83;;
49584;SDS011;35491;49.142;9.210;2022-12-18T01:38:23;60.47;;;36.72;;
49584;SDS011;35491;49.142;9.210;2022-12-18T01:39:27;65.15;;;40.33;;
49584;SDS011;35491;49.142;9.210;2022-12-18T01:40:28;68.80;;;40.35;;
49584;SDS011;35491;49.142;9.210;2022-12-18T01:41:33;69.72;;;41.70;;
49584;SDS011;35491;49.142;9.210;2022-12-18T01:42:53;77.43;;;45.03;;
49584;SDS011;35491;49.142;9.210;2022-12-18T01:43:57;72.22;;;44.28;;
49584;SDS011;35491;49.142;9.210;2022-12-18T01:45:00;77.47;;;46.08;;
49584;SDS011;35491;49.142;9.210;2022-12-18T01:46:07;75.93;;;44.50;;
49584;SDS011;35491;49.142;9.210;2022-12-18T01:47:08;77.53;;;46.38;;
49584;SDS011;35491;49.142;9.210;2022-12-18T01:48:18;80.10;;;46.22;;
49584;SDS011;35491;49.142;9.210;2022-12-18T01:49:19;72.80;;;45.13;;
49584;SDS011;35491;49.142;9.210;2022-12-18T01:50:24;85.50;;;47.20;;
49584;SDS011;35491;49.142;9.210;2022-12-18T01:51:29;79.15;;;44.97;;
49584;SDS011;35491;49.142;9.210;2022-12-18T01:52:34;77.32;;;46.28;;
49584;SDS011;35491;49.142;9.210;2022-12-18T01:53:36;80.65;;;47.33;;
49584;SDS011;35491;49.142;9.210;2022-12-18T01:55:48;77.65;;;46.00;;
49584;SDS011;35491;49.142;9.210;2022-12-18T01:56:55;80.95;;;45.28;;
49584;SDS011;35491;49.142;9.210;2022-12-18T01:58:00;82.57;;;48.22;;
49584;SDS011;35491;49.142;9.210;2022-12-18T01:59:06;81.03;;;47.80;;
49584;SDS011;35491;49.142;9.210;2022-12-18T02:00:13;80.63;;;48.35;;
49584;SDS011;35491;49.142;9.210;2022-12-18T02:01:20;77.57;;;45.00;;
49584;SDS011;35491;49.142;9.210;2022-12-18T02:02:22;79.65;;;46.63;;
49584;SDS011;35491;49.142;9.210;2022-12-18T02:03:31;74.90;;;46.03;;
49584;SDS011;35491;49.142;9.210;2022-12-18T02:04:33;76.90;;;44.65;;
49584;SDS011;35491;49.142;9.210;2022-12-18T02:05:40;76.18;;;45.95;;
49584;SDS011;35491;49.142;9.210;2022-12-18T02:06:50;74.38;;;44.35;;
49584;SDS011;35491;49.142;9.210;2022-12-18T02:08:08;80.90;;;47.47;;
49584;SDS011;35491;49.142;9.210;2022-12-18T02:09:17;73.50;;;43.55;;
49584;SDS011;35491;49.142;9.210;2022-12-18T02:10:24;80.47;;;44.42;;
49584;SDS011;35491;49.142;9.210;2022-12-18T02:11:40;75.53;;;42.35;;
49584;SDS011;35491;49.142;9.210;2022-12-18T02:12:49;69.97;;;41.78;;
49584;SDS011;35491;49.142;9.210;2022-12-18T02:14:04;67.53;;;40.13;;
49584;SDS011;35491;49.142;9.210;2022-12-18T02:15:23;64.55;;;37.75;;
49584;SDS011;35491;49.142;9.210;2022-12-18T02:16:35;66.65;;;37.85;;
49584;SDS011;35491;49.142;9.210;2022-12-18T02:17:42;62.47;;;37.65;;
49584;SDS011;35491;49.142;9.210;2022-12-18T02:19:00;66.90;;;37.60;;
49584;SDS011;35491;49.142;9.210;2022-12-18T02:20:08;64.90;;;38.15;;
49584;SDS011;35491;49.142;9.210;2022-12-18T02:22:29;75.18;;;42.55;;
49584;SDS011;35491;49.142;9.210;2022-12-18T02:23:50;69.15;;;40.25;;
49584;SDS011;35491;49.142;9.210;2022-12-18T02:25:00;67.03;;;39.75;;
49584;SDS011;35491;49.142;9.210;2022-12-18T02:26:24;67.80;;;39.95;;
49584;SDS011;35491;49.142;9.210;2022-12-18T02:27:38;68.22;;;39.55;;
49584;SDS011;35491;49.142;9.210;2022-12-18T02:28:45;71.72;;;43.25;;
49584;SDS011;35491;49.142;9.210;2022-12-18T02:29:53;69.97;;;41.33;;
49584;SDS011;35491;49.142;9.210;2022-12-18T02:30:56;79.22;;;44.65;;
49584;SDS011;35491;49.142;9.210;2022-12-18T02:32:06;71.63;;;42.72;;
49584;SDS011;35491;49.142;9.210;2022-12-18T02:33:11;65.07;;;38.47;;
49584;SDS011;35491;49.142;9.210;2022-12-18T02:34:16;72.15;;;42.42;;
49584;SDS011;35491;49.142;9.210;2022-12-18T02:35:22;72.00;;;42.35;;
49584;SDS011;35491;49.142;9.210;2022-12-18T02:36:28;66.45;;;40.47;;
49584;SDS011;35491;49.142;9.210;2022-12-18T02:37:33;67.00;;;41.38;;
49584;SDS011;35491;49.142;9.210;2022-12-18T02:38:39;65.85;;;39.53;;
49584;SDS011;35491;49.142;9.210;2022-12-18T02:39:43;68.38;;;39.78;;
49584;SDS011;35491;49.142;9.210;2022-12-18T02:40:50;71.10;;;40.65;;
49584;SDS011;35491;49.142;9.210;2022-12-18T02:41:56;68.30;;;41.25;;
49584;SDS011;35491;49.142;9.210;2022-12-18T02:43:06;70.60;;;41.22;;
49584;SDS011;35491;49.142;9.210;2022-12-18T02:44:09;76.30;;;42.85;;
49584;SDS011;35491;49.142;9.210;2022-12-18T02:45:15;71.15;;;43.03;;
49584;SDS011;35491;49.142;9.210;2022-12-18T02:46:25;70.25;;;40.67;;
49584;SDS011;35491;49.142;9.210;2022-12-18T02:47:34;67.55;;;40.75;;
49584;SDS011;35491;49.142;9.210;2022-12-18T02:48:39;74.30;;;41.40;;
49584;SDS011;35491;49.142;9.210;2022-12-18T02:49:45;72.18;;;41.20;;
49584;SDS011;35491;49.142;9.210;2022-12-18T02:51:02;73.50;;;42.05;;
49584;SDS011;35491;49.142;9.210;2022-12-18T02:52:11;69.35;;;42.08;;
49584;SDS011;35491;49.142;9.210;2022-12-18T02:53:24;71.45;;;41.33;;
49584;SDS011;35491;49.142;9.210;2022-12-18T02:56:02;69.53;;;42.05;;
49584;SDS011;35491;49.142;9.210;2022-12-18T02:57:13;72.72;;;42.58;;
49584;SDS011;35491;49.142;9.210;2022-12-18T02:58:26;74.30;;;43.20;;
49584;SDS011;35491;49.142;9.210;2022-12-18T02:59:33;73.97;;;43.38;;
49584;SDS011;35491;49.142;9.210;2022-12-18T03:00:43;75.53;;;43.17;;
49584;SDS011;35491;49.142;9.210;2022-12-18T03:01:50;78.40;;;44.72;;
49584;SDS011;35491;49.142;9.210;2022-12-18T03:02:59;70.20;;;43.45;;
49584;SDS011;35491;49.142;9.210;2022-12-18T03:04:07;71.40;;;41.38;;
49584;SDS011;35491;49.142;9.210;2022-12-18T03:05:16;70.05;;;40.53;;
49584;SDS011;35491;49.142;9.210;2022-12-18T03:06:23;73.82;;;42.33;;
49584;SDS011;35491;49.142;9.210;2022-12-18T03:07:33;75.05;;;44.97;;
49584;SDS011;35491;49.142;9.210;2022-12-18T03:08:39;70.40;;;40.33;;
49584;SDS011;35491;49.142;9.210;2022-12-18T03:09:48;75.72;;;43.25;;
49584;SDS011;35491;49.142;9.210;2022-12-18T03:10:54;75.32;;;42.60;;
49584;SDS011;35491;49.142;9.210;2022-12-18T03:12:04;73.82;;;42.22;;
49584;SDS011;35491;49.142;9.210;2022-12-18T03:13:30;72.97;;;41.72;;
49584;SDS011;35491;49.142;9.210;2022-12-18T03:14:38;76.00;;;42.72;;
49584;SDS011;35491;49.142;9.210;2022-12-18T03:15:41;73.90;;;41.17;;
49584;SDS011;35491;49.142;9.210;2022-12-18T03:16:49;73.03;;;42.40;;
49584;SDS011;35491;49.142;9.210;2022-12-18T03:17:55;68.00;;;41.15;;
49584;SDS011;35491;49.142;9.210;2022-12-18T03:19:03;73.63;;;42.10;;
49584;SDS011;35491;49.142;9.210;2022-12-18T03:20:11;74.18;;;40.88;;
49584;SDS011;35491;49.142;9.210;2022-12-18T03:21:18;72.95;;;42.63;;
49584;SDS011;35491;49.142;9.210;2022-12-18T03:22:22;75.63;;;43.55;;
49584;SDS011;35491;49.142;9.210;2022-12-18T03:23:32;68.07;;;40.47;;
49584;SDS011;35491;49.142;9.210;2022-12-18T03:24:36;71.80;;;43.47;;
49584;SDS011;35491;49.142;9.210;2022-12-18T03:25:42;65.95;;;40.05;;
49584;SDS011;35491;49.142;9.210;2022-12-18T03:26:46;72.63;;;41.03;;
49584;SDS011;35491;49.142;9.210;2022-12-18T03:27:54;69.45;;;40.40;;
49584;SDS011;35491;49.142;9.210;2022-12-18T03:29:02;72.63;;;40.85;;
49584;SDS011;35491;49.142;9.210;2022-12-18T03:30:11;73.75;;;42.13;;
49584;SDS011;35491;49.142;9.210;2022-12-18T03:31:14;81.65;;;46.17;;
49584;SDS011;35491;49.142;9.210;2022-12-18T03:32:20;80.97;;;44.63;;
49584;SDS011;35491;49.142;9.210;2022-12-18T03:33:27;72.45;;;42.28;;
49584;SDS011;35491;49.142;9.210;2022-12-18T03:34:34;82.50;;;44.22;;
49584;SDS011;35491;49.142;9.210;2022-12-18T03:35:39;76.97;;;41.63;;
49584;SDS011;35491;49.142;9.210;2022-12-18T03:36:45;70.20;;;40.35;;
49584;SDS011;35491;49.142;9.210;2022-12-18T03:37:47;68.72;;;39.85;;
49584;SDS011;35491;49.142;9.210;2022-12-18T03:38:51;68.18;;;40.13;;
49584;SDS011;35491;49.142;9.210;2022-12-18T03:39:52;69.32;;;40.75;;
49584;SDS011;35491;49.142;9.210;2022-12-18T03:40:58;69.97;;;40.72;;
49584;SDS011;35491;49.142;9.210;2022-12-18T03:42:04;64.28;;;39.78;;
49584;SDS011;35491;49.142;9.210;2022-12-18T03:43:15;68.07;;;39.28;;
49584;SDS011;35491;49.142;9.210;2022-12-18T03:44:26;65.35;;;39.42;;
49584;SDS011;35491;49.142;9.210;2022-12-18T03:45:36;63.95;;;38.38;;
49584;SDS011;35491;49.142;9.210;2022-12-18T03:46:45;69.68;;;37.75;;
49584;SDS011;35491;49.142;9.210;2022-12-18T03:47:58;68.13;;;37.78;;
49584;SDS011;35491;49.142;9.210;2022-12-18T03:49:05;65.07;;;36.28;;
49584;SDS011;35491;49.142;9.210;2022-12-18T03:50:18;63.42;;;35.20;;
49584;SDS011;35491;49.142;9.210;2022-12-18T03:51:24;65.45;;;36.28;;
49584;SDS011;35491;49.142;9.210;2022-12-18T03:52:33;64.28;;;36.47;;
49584;SDS011;35491;49.142;9.210;2022-12-18T03:53:39;63.72;;;37.67;;
49584;SDS011;35491;49.142;9.210;2022-12-18T03:54:49;63.55;;;37.22;;
49584;SDS011;35491;49.142;9.210;2022-12-18T03:55:53;69.57;;;38.15;;
49584;SDS011;35491;49.142;9.210;2022-12-18T03:56:59;64.80;;;36.13;;
49584;SDS011;35491;49.142;9.210;2022-12-18T03:58:08;61.85;;;34.90;;
49584;SDS011;35491;49.142;9.210;2022-12-18T03:59:13;67.43;;;37.58;;
49584;SDS011;35491;49.142;9.210;2022-12-18T04:00:23;69.85;;;40.72;;
49584;SDS011;35491;49.142;9.210;2022-12-18T04:01:25;65.50;;;38.53;;
49584;SDS011;35491;49.142;9.210;2022-12-18T04:02:34;71.93;;;38.42;;
49584;SDS011;35491;49.142;9.210;2022-12-18T04:03:40;60.92;;;37.63;;
49584;SDS011;35491;49.142;9.210;2022-12-18T04:04:45;62.58;;;38.08;;
49584;SDS011;35491;49.142;9.210;2022-12-18T04:05:49;67.38;;;38.60;;
49584;SDS011;35491;49.142;9.210;2022-12-18T04:06:54;67.75;;;39.17;;
49584;SDS011;35491;49.142;9.210;2022-12-18T04:07:57;66.03;;;38.70;;
49584;SDS011;35491;49.142;9.210;2022-12-18T04:09:02;65.50;;;36.63;;
49584;SDS011;35491;49.142;9.210;2022-12-18T04:10:06;65.82;;;37.72;;
49584;SDS011;35491;49.142;9.210;2022-12-18T04:11:13;56.70;;;35.28;;
49584;SDS011;35491;49.142;9.210;2022-12-18T04:12:14;60.40;;;35.42;;
49584;SDS011;35491;49.142;9.210;2022-12-18T04:13:22;65.72;;;37.03;;
49584;SDS011;35491;49.142;9.210;2022-12-18T04:14:24;65.90;;;36.72;;
49584;SDS011;35491;49.142;9.210;2022-12-18T04:15:31;66.72;;;38.88;;
49584;SDS011;35491;49.142;9.210;2022-12-18T04:16:35;65.28;;;37.97;;
49584;SDS011;35491;49.142;9.210;2022-12-18T04:17:41;66.50;;;39.47;;
49584;SDS011;35491;49.142;9.210;2022-12-18T04:18:48;63.70;;;38.03;;
49584;SDS011;35491;49.142;9.210;2022-12-18T04:19:52;67.43;;;38.72;;
49584;SDS011;35491;49.142;9.210;2022-12-18T04:20:54;68.90;;;39.97;;
49584;SDS011;35491;49.142;9.210;2022-12-18T04:21:58;70.32;;;39.90;;
49584;SDS011;35491;49.142;9.210;2022-12-18T04:23:00;64.20;;;39.20;;
49584;SDS011;35491;49.142;9.210;2022-12-18T04:24:04;74.13;;;41.53;;
49584;SDS011;35491;49.142;9.210;2022-12-18T04:25:07;66.10;;;40.30;;
49584;SDS011;35491;49.142;9.210;2022-12-18T04:26:12;62.53;;;38.90;;
49584;SDS011;35491;49.142;9.210;2022-12-18T04:27:14;67.90;;;38.97;;
49584;SDS011;35491;49.142;9.210;2022-12-18T04:28:19;69.10;;;41.55;;
49584;SDS011;35491;49.142;9.210;2022-12-18T04:29:20;67.00;;;39.75;;
49584;SDS011;35491;49.142;9.210;2022-12-18T04:30:24;70.55;;;40.35;;
49584;SDS011;35491;49.142;9.210;2022-12-18T04:31:28;69.50;;;41.10;;
49584;SDS011;35491;49.142;9.210;2022-12-18T04:32:33;69.68;;;41.03;;
49584;SDS011;35491;49.142;9.210;2022-12-18T04:33:34;67.57;;;40.28;;
49584;SDS011;35491;49.142;9.210;2022-12-18T04:34:39;65.70;;;39.60;;
49584;SDS011;35491;49.142;9.210;2022-12-18T04:35:40;63.97;;;39.03;;
49584;SDS011;35491;49.142;9.210;2022-12-18T04:36:45;63.70;;;39.20;;
49584;SDS011;35491;49.142;9.210;2022-12-18T04:37:47;69.00;;;41.45;;
49584;SDS011;35491;49.142;9.210;2022-12-18T04:38:51;65.13;;;39.60;;
49584;SDS011;35491;49.142;9.210;2022-12-18T04:39:59;69.85;;;40.35;;
49584;SDS011;35491;49.142;9.210;2022-12-18T04:41:01;71.18;;;38.42;;
49584;SDS011;35491;49.142;9.210;2022-12-18T04:42:06;65.32;;;37.65;;
49584;SDS011;35491;49.142;9.210;2022-12-18T04:43:07;62.72;;;37.90;;
49584;SDS011;35491;49.142;9.210;2022-12-18T04:44:13;66.85;;;39.28;;
49584;SDS011;35491;49.142;9.210;2022-12-18T04:45:15;65.60;;;38.42;;
49584;SDS011;35491;49.142;9.210;2022-12-18T04:46:19;67.30;;;38.13;;
49584;SDS011;35491;49.142;9.210;2022-12-18T04:47:23;66.43;;;38.75;;
49584;SDS011;35491;49.142;9.210;2022-12-18T04:48:28;69.88;;;39.28;;
49584;SDS011;35491;49.142;9.210;2022-12-18T04:49:29;61.40;;;36.78;;
49584;SDS011;35491;49.142;9.210;2022-12-18T04:50:33;66.93;;;37.83;;
49584;SDS011;35491;49.142;9.210;2022-12-18T04:51:36;62.25;;;36.10;;
49584;SDS011;35491;49.142;9.210;2022-12-18T04:54:53;52.08;;;31.67;;
49584;SDS011;35491;49.142;9.210;2022-12-18T04:56:06;52.92;;;31.23;;
49584;SDS011;35491;49.142;9.210;2022-12-18T04:57:10;50.47;;;29.55;;
49584;SDS011;35491;49.142;9.210;2022-12-18T04:58:14;53.22;;;29.90;;
49584;SDS011;35491;49.142;9.210;2022-12-18T04:59:16;47.47;;;28.20;;
49584;SDS011;35491;49.142;9.210;2022-12-18T05:00:20;48.78;;;28.95;;
49584;SDS011;35491;49.142;9.210;2022-12-18T05:01:22;54.78;;;31.35;;
49584;SDS011;35491;49.142;9.210;2022-12-18T05:02:30;53.72;;;30.85;;
49584;SDS011;35491;49.142;9.210;2022-12-18T05:03:31;51.22;;;31.65;;
49584;SDS011;35491;49.142;9.210;2022-12-18T05:04:35;52.38;;;30.17;;
49584;SDS011;35491;49.142;9.210;2022-12-18T05:05:37;52.15;;;29.88;;
49584;SDS011;35491;49.142;9.210;2022-12-18T05:06:42;46.63;;;28.75;;
49584;SDS011;35491;49.142;9.210;2022-12-18T05:07:44;50.78;;;30.15;;
49584;SDS011;35491;49.142;9.210;2022-12-18T05:08:48;54.42;;;32.78;;
49584;SDS011;35491;49.142;9.210;2022-12-18T05:09:50;52.28;;;30.77;;
49584;SDS011;35491;49.142;9.210;2022-12-18T05:10:58;51.22;;;30.98;;
49584;SDS011;35491;49.142;9.210;2022-12-18T05:12:00;51.33;;;30.33;;
49584;SDS011;35491;49.142;9.210;2022-12-18T05:13:04;56.53;;;32.75;;
49584;SDS011;35491;49.142;9.210;2022-12-18T05:14:06;49.25;;;30.60;;
49584;SDS011;35491;49.142;9.210;2022-12-18T05:15:10;53.13;;;29.88;;
49584;SDS011;35491;49.142;9.210;2022-12-18T05:16:12;45.45;;;27.52;;
49584;SDS011;35491;49.142;9.210;2022-12-18T05:17:18;49.78;;;29.67;;
49584;SDS011;35491;49.142;9.210;2022-12-18T05:18:23;59.38;;;30.95;;
49584;SDS011;35491;49.142;9.210;2022-12-18T05:19:28;51.13;;;30.20;;
49584;SDS011;35491;49.142;9.210;2022-12-18T05:20:29;46.72;;;27.67;;
49584;SDS011;35491;49.142;9.210;2022-12-18T05:21:34;48.38;;;28.88;;
49584;SDS011;35491;49.142;9.210;2022-12-18T05:22:38;54.28;;;32.65;;
49584;SDS011;35491;49.142;9.210;2022-12-18T05:23:42;50.50;;;31.20;;
49584;SDS011;35491;49.142;9.210;2022-12-18T05:24:43;53.58;;;31.17;;
49584;SDS011;35491;49.142;9.210;2022-12-18T05:25:50;56.33;;;32.90;;
49584;SDS011;35491;49.142;9.210;2022-12-18T05:26:53;54.00;;;30.73;;
49584;SDS011;35491;49.142;9.210;2022-12-18T05:27:57;51.80;;;31.65;;
49584;SDS011;35491;49.142;9.210;2022-12-18T05:28:59;55.63;;;32.17;;
49584;SDS011;35491;49.142;9.210;2022-12-18T05:30:03;52.97;;;31.70;;
49584;SDS011;35491;49.142;9.210;2022-12-18T05:31:08;48.50;;;29.02;;
49584;SDS011;35491;49.142;9.210;2022-12-18T05:32:23;55.30;;;32.72;;
49584;SDS011;35491;49.142;9.210;2022-12-18T05:33:34;50.25;;;31.40;;
49584;SDS011;35491;49.142;9.210;2022-12-18T05:34:49;55.92;;;30.42;;
49584;SDS011;35491;49.142;9.210;2022-12-18T05:35:57;50.05;;;28.95;;
49584;SDS011;35491;49.142;9.210;2022-12-18T05:37:13;48.60;;;28.02;;
49584;SDS011;35491;49.142;9.210;2022-12-18T05:38:19;46.92;;;27.55;;
49584;SDS011;35491;49.142;9.210;2022-12-18T05:39:38;48.13;;;27.63;;
49584;SDS011;35491;49.142;9.210;2022-12-18T05:40:55;46.80;;;26.88;;
49584;SDS011;35491;49.142;9.210;2022-12-18T05:42:08;46.70;;;26.80;;
49584;SDS011;35491;49.142;9.210;2022-12-18T05:43:13;48.70;;;28.85;;
49584;SDS011;35491;49.142;9.210;2022-12-18T05:44:36;49.95;;;28.60;;
49584;SDS011;35491;49.142;9.210;2022-12-18T05:45:47;50.40;;;29.73;;
49584;SDS011;35491;49.142;9.210;2022-12-18T05:47:02;52.92;;;27.02;;
49584;SDS011;35491;49.142;9.210;2022-12-18T05:48:13;51.35;;;29.27;;
49584;SDS011;35491;49.142;9.210;2022-12-18T05:49:28;51.25;;;28.25;;
49584;SDS011;35491;49.142;9.210;2022-12-18T05:51:44;37.63;;;22.95;;
49584;SDS011;35491;49.142;9.210;2022-12-18T05:52:50;47.28;;;29.00;;
49584;SDS011;35491;49.142;9.210;2022-12-18T05:54:03;50.53;;;29.30;;
49584;SDS011;35491;49.142;9.210;2022-12-18T05:55:09;50.25;;;29.92;;
49584;SDS011;35491;49.142;9.210;2022-12-18T05:56:20;52.63;;;30.17;;
49584;SDS011;35491;49.142;9.210;2022-12-18T05:57:31;51.40;;;29.33;;
49584;SDS011;35491;49.142;9.210;2022-12-18T05:58:39;50.92;;;30.10;;
49584;SDS011;35491;49.142;9.210;2022-12-18T05:59:49;48.75;;;27.95;;
49584;SDS011;35491;49.142;9.210;2022-12-18T06:00:57;48.30;;;28.52;;
49584;SDS011;35491;49.142;9.210;2022-12-18T06:02:14;49.72;;;28.33;;
49584;SDS011;35491;49.142;9.210;2022-12-18T06:03:23;48.15;;;27.50;;
49584;SDS011;35491;49.142;9.210;2022-12-18T06:04:38;50.53;;;27.90;;
49584;SDS011;35491;49.142;9.210;2022-12-18T06:05:46;53.63;;;30.30;;
49584;SDS011;35491;49.142;9.210;2022-12-18T06:06:54;41.97;;;28.63;;
49584;SDS011;35491;49.142;9.210;2022-12-18T06:08:01;49.35;;;28.60;;
49584;SDS011;35491;49.142;9.210;2022-12-18T06:09:11;48.90;;;29.98;;
49584;SDS011;35491;49.142;9.210;2022-12-18T06:10:16;51.75;;;29.45;;
49584;SDS011;35491;49.142;9.210;2022-12-18T06:11:25;55.00;;;33.88;;
49584;SDS011;35491;49.142;9.210;2022-12-18T06:12:31;51.47;;;29.58;;
49584;SDS011;35491;49.142;9.210;2022-12-18T06:13:40;49.17;;;29.88;;
49584;SDS011;35491;49.142;9.210;2022-12-18T06:14:44;52.20;;;29.63;;
49584;SDS011;35491;49.142;9.210;2022-12-18T06:15:50;49.75;;;29.85;;
49584;SDS011;35491;49.142;9.210;2022-12-18T06:16:52;51.50;;;30.10;;
49584;SDS011;35491;49.142;9.210;2022-12-18T06:17:56;49.60;;;28.92;;
49584;SDS011;35491;49.142;9.210;2022-12-18T06:18:58;53.60;;;31.80;;
49584;SDS011;35491;49.142;9.210;2022-12-18T06:22:22;51.63;;;29.60;;
49584;SDS011;35491;49.142;9.210;2022-12-18T06:23:26;53.13;;;29.83;;
49584;SDS011;35491;49.142;9.210;2022-12-18T06:24:28;47.00;;;27.85;;
49584;SDS011;35491;49.142;9.210;2022-12-18T06:25:36;45.70;;;27.95;;
49584;SDS011;35491;49.142;9.210;2022-12-18T06:26:39;47.67;;;28.40;;
49584;SDS011;35491;49.142;9.210;2022-12-18T06:27:43;51.22;;;30.88;;
49584;SDS011;35491;49.142;9.210;2022-12-18T06:28:44;52.58;;;31.33;;
49584;SDS011;35491;49.142;9.210;2022-12-18T06:29:49;50.35;;;30.23;;
49584;SDS011;35491;49.142;9.210;2022-12-18T06:30:50;59.15;;;34.20;;
49584;SDS011;35491;49.142;9.210;2022-12-18T06:31:54;52.97;;;31.45;;
49584;SDS011;35491;49.142;9.210;2022-12-18T06:32:56;51.88;;;31.48;;
49584;SDS011;35491;49.142;9.210;2022-12-18T06:34:01;54.50;;;32.28;;
49584;SDS011;35491;49.142;9.210;2022-12-18T06:35:04;55.00;;;33.80;;
49584;SDS011;35491;49.142;9.210;2022-12-18T06:36:10;55.28;;;33.40;;
49584;SDS011;35491;49.142;9.210;2022-12-18T06:37:13;51.10;;;30.33;;
49584;SDS011;35491;49.142;9.210;2022-12-18T06:38:20;49.80;;;31.20;;
49584;SDS011;35491;49.142;9.210;2022-12-18T06:39:22;50.67;;;30.35;;
49584;SDS011;35491;49.142;9.210;2022-12-18T06:40:26;48.42;;;29.10;;
49584;SDS011;35491;49.142;9.210;2022-12-18T06:41:28;47.90;;;30.20;;
49584;SDS011;35491;49.142;9.210;2022-12-18T06:42:33;53.70;;;30.17;;
49584;SDS011;35491;49.142;9.210;2022-12-18T06:43:34;51.35;;;30.73;;
49584;SDS011;35491;49.142;9.210;2022-12-18T06:44:39;51.72;;;30.85;;
49584;SDS011;35491;49.142;9.210;2022-12-18T06:45:41;51.38;;;30.75;;
49584;SDS011;35491;49.142;9.210;2022-12-18T06:46:46;52.45;;;30.77;;
49584;SDS011;35491;49.142;9.210;2022-12-18T06:47:48;50.90;;;29.23;;
49584;SDS011;35491;49.142;9.210;2022-12-18T06:48:52;51.83;;;31.67;;
49584;SDS011;35491;49.142;9.210;2022-12-18T06:49:54;50.95;;;28.98;;
49584;SDS011;35491;49.142;9.210;2022-12-18T06:50:59;50.08;;;29.98;;
49584;SDS011;35491;49.142;9.210;2022-12-18T06:52:01;52.20;;;30.95;;
49584;SDS011;35491;49.142;9.210;2022-12-18T06:53:05;49.35;;;30.33;;
49584;SDS011;35491;49.142;9.210;2022-12-18T06:54:10;51.78;;;31.23;;
49584;SDS011;35491;49.142;9.210;2022-12-18T06:55:14;48.00;;;28.90;;
49584;SDS011;35491;49.142;9.210;2022-12-18T06:56:16;51.70;;;29.50;;
49584;SDS011;35491;49.142;9.210;2022-12-18T06:57:47;45.60;;;28.92;;
49584;SDS011;35491;49.142;9.210;2022-12-18T06:58:52;48.53;;;28.42;;
49584;SDS011;35491;49.142;9.210;2022-12-18T06:59:53;50.95;;;28.88;;
49584;SDS011;35491;49.142;9.210;2022-12-18T07:00:59;50.25;;;29.88;;
49584;SDS011;35491;49.142;9.210;2022-12-18T07:02:02;49.60;;;29.40;;
49584;SDS011;35491;49.142;9.210;2022-12-18T07:03:06;49.35;;;29.60;;
49584;SDS011;35491;49.142;9.210;2022-12-18T07:04:08;53.05;;;29.73;;
49584;SDS011;35491;49.142;9.210;2022-12-18T07:05:12;53.90;;;33.10;;
49584;SDS011;35491;49.142;9.210;2022-12-18T07:06:15;52.83;;;29.77;;
49584;SDS011;35491;49.142;9.210;2022-12-18T07:07:21;53.45;;;33.47;;
49584;SDS011;35491;49.142;9.210;2022-12-18T07:08:25;51.47;;;30.65;;